createdAt,value
2023-05-01T00:01:27.209Z,101954.88
2023-05-01T00:03:55.285Z,101949.72
2023-05-01T00:06:23.509Z,101948.44
2023-05-01T00:08:51.514Z,101953.84
2023-05-01T00:11:19.509Z,101948.53
2023-05-01T00:13:47.887Z,101937.19
2023-05-01T00:16:18.111Z,101943.94
2023-05-01T00:18:46.278Z,101941.78
2023-05-01T00:21:14.321Z,101940.41
2023-05-01T00:23:42.228Z,101940.16
2023-05-01T00:26:10.159Z,101928.31
2023-05-01T00:28:38.112Z,101933.53
2023-05-01T00:31:06.169Z,101923.94
2023-05-01T00:33:35.591Z,101919.03
2023-05-01T00:36:03.698Z,101921.22
2023-05-01T00:38:32.108Z,101909.63
2023-05-01T00:40:59.994Z,101915.81
2023-05-01T00:43:28.002Z,101913.91
2023-05-01T00:45:55.997Z,101901.56
2023-05-01T00:48:24.228Z,101914.03
2023-05-01T00:50:55.363Z,101907.09
2023-05-01T00:53:26.388Z,101906.28
2023-05-01T00:55:56.527Z,101899.56
2023-05-01T00:58:24.726Z,101903.03
2023-05-01T01:00:53.500Z,101897.94
2023-05-01T01:03:21.419Z,101893.88
2023-05-01T01:05:57.882Z,101892.31
2023-05-01T01:08:32.577Z,101892.53
2023-05-01T01:11:09.548Z,101883.31
2023-05-01T01:13:44.955Z,101891.78
2023-05-01T01:16:20.282Z,101892.91
2023-05-01T01:18:54.392Z,101890.13
2023-05-01T01:21:34.416Z,101886.28
2023-05-01T01:24:28.893Z,101884.28
2023-05-01T01:27:20.663Z,101889.03
2023-05-01T01:30:04.850Z,101884.59
2023-05-01T01:33:02.527Z,101882.13
2023-05-01T01:35:34.424Z,101877.03
2023-05-01T01:38:07.652Z,101879.78
2023-05-01T01:40:40.785Z,101878.59
2023-05-01T01:43:13.575Z,101879.25
2023-05-01T01:45:44.957Z,101874.91
2023-05-01T01:48:17.698Z,101875.94
2023-05-01T01:50:51.476Z,101876.91
2023-05-01T01:53:20.714Z,101867.88
2023-05-01T01:55:52.080Z,101868.09
2023-05-01T01:58:26.211Z,101860.03
2023-05-01T02:00:56.626Z,101865.44
2023-05-01T02:03:25.921Z,101861.94
2023-05-01T02:05:57.573Z,101864.94
2023-05-01T02:08:26.680Z,101855.09
2023-05-01T02:11:01.708Z,101855.81
2023-05-01T02:13:32.050Z,101855.59
2023-05-01T02:16:02.158Z,101848.69
2023-05-01T02:18:32.061Z,101850.13
2023-05-01T02:21:02.270Z,101859.28
2023-05-01T02:23:33.537Z,101847.44
2023-05-01T02:26:05.177Z,101846.34
2023-05-01T02:28:35.322Z,101847.88
2023-05-01T02:31:03.292Z,101842.84
2023-05-01T02:33:31.309Z,101830.50
2023-05-01T02:35:59.757Z,101833.09
2023-05-01T02:38:29.910Z,101824.97
2023-05-01T02:40:59.115Z,101821.50
2023-05-01T02:43:28.780Z,101821.50
2023-05-01T02:45:59.118Z,101815.38
2023-05-01T02:48:29.339Z,101821.69
2023-05-01T02:50:58.266Z,101826.44
2023-05-01T02:53:26.358Z,101816.53
2023-05-01T02:55:56.123Z,101815.72
2023-05-01T02:58:24.551Z,101815.78
2023-05-01T03:00:52.643Z,101810.00
2023-05-01T03:03:20.730Z,101809.94
2023-05-01T03:05:48.734Z,101806.25
2023-05-01T03:08:17.277Z,101800.81
2023-05-01T03:10:45.372Z,101797.31
2023-05-01T03:13:14.655Z,101795.41
2023-05-01T03:15:42.908Z,101797.13
2023-05-01T03:18:10.763Z,101797.19
2023-05-01T03:20:38.613Z,101795.50
2023-05-01T03:23:07.132Z,101792.34
2023-05-01T03:25:35.105Z,101791.41
2023-05-01T03:28:02.917Z,101794.06
2023-05-01T03:30:35.495Z,101786.28
2023-05-01T03:33:03.716Z,101779.44
2023-05-01T03:35:31.792Z,101774.00
2023-05-01T03:37:59.812Z,101773.72
2023-05-01T03:40:27.698Z,101773.81
2023-05-01T03:42:55.516Z,101766.19
2023-05-01T03:45:23.425Z,101765.09
2023-05-01T03:47:53.161Z,101772.25
2023-05-01T03:50:20.994Z,101759.16
2023-05-01T03:52:49.024Z,101759.72
2023-05-01T03:55:17.056Z,101756.25
2023-05-01T03:57:47.151Z,101764.22
2023-05-01T04:00:15.394Z,101754.53
2023-05-01T04:02:44.136Z,101753.78
2023-05-01T04:05:14.529Z,101751.78
2023-05-01T04:07:42.774Z,101752.31
2023-05-01T04:10:11.058Z,101749.53
2023-05-01T04:12:39.030Z,101750.53
2023-05-01T04:15:08.554Z,101742.94
2023-05-01T04:17:37.006Z,101733.88
2023-05-01T04:20:06.367Z,101740.72
2023-05-01T04:22:35.676Z,101730.00
2023-05-01T04:25:04.759Z,101733.53
2023-05-01T04:27:32.806Z,101731.84
2023-05-01T04:30:00.850Z,101729.72
2023-05-01T04:32:28.835Z,101727.16
2023-05-01T04:34:56.867Z,101728.91
2023-05-01T04:37:24.873Z,101724.75
2023-05-01T04:39:55.729Z,101721.97
2023-05-01T04:42:24.514Z,101724.19
2023-05-01T04:44:52.388Z,101722.28
2023-05-01T04:47:20.351Z,101719.38
2023-05-01T04:49:48.287Z,101722.53
2023-05-01T04:52:16.419Z,101719.13
2023-05-01T04:54:44.485Z,101722.78
2023-05-01T04:57:13.792Z,101719.13
2023-05-01T04:59:41.699Z,101720.53
2023-05-01T05:02:09.912Z,101711.19
2023-05-01T05:04:38.061Z,101711.13
2023-05-01T05:07:05.909Z,101718.66
2023-05-01T05:09:33.898Z,101715.97
2023-05-01T05:12:03.939Z,101715.88
2023-05-01T05:14:33.237Z,101723.88
2023-05-01T05:17:01.274Z,101725.13
2023-05-01T05:19:29.315Z,101714.75
2023-05-01T05:21:57.229Z,101717.97
2023-05-01T05:24:26.172Z,101713.34
2023-05-01T05:26:55.670Z,101719.19
2023-05-01T05:29:23.636Z,101718.75
2023-05-01T05:31:53.129Z,101716.59
2023-05-01T05:34:21.458Z,101717.53
2023-05-01T05:36:49.400Z,101713.00
2023-05-01T05:39:17.501Z,101708.25
2023-05-01T05:41:45.588Z,101705.41
2023-05-01T05:44:13.595Z,101699.50
2023-05-01T05:46:41.891Z,101696.09
2023-05-01T05:49:12.424Z,101697.44
2023-05-01T05:51:40.578Z,101694.25
2023-05-01T05:54:08.840Z,101695.19
2023-05-01T05:56:37.016Z,101696.63
2023-05-01T05:59:06.534Z,101699.94
2023-05-01T06:01:37.581Z,101700.03
2023-05-01T06:04:06.318Z,101693.47
2023-05-01T06:06:35.749Z,101687.59
2023-05-01T06:09:04.099Z,101684.66
2023-05-01T06:11:32.089Z,101686.19
2023-05-01T06:14:00.392Z,101677.09
2023-05-01T06:16:28.513Z,101681.91
2023-05-01T06:18:56.940Z,101671.44
2023-05-01T06:21:27.953Z,101671.53
2023-05-01T06:24:00.045Z,101674.47
2023-05-01T06:26:28.381Z,101669.56
2023-05-01T06:28:56.588Z,101674.28
2023-05-01T06:31:24.656Z,101669.97
2023-05-01T06:33:55.404Z,101660.38
2023-05-01T06:36:23.738Z,101665.31
2023-05-01T06:38:52.551Z,101661.09
2023-05-01T06:41:22.778Z,101662.28
2023-05-01T06:43:50.662Z,101654.19
2023-05-01T06:46:19.185Z,101659.06
2023-05-01T06:48:47.500Z,101647.44
2023-05-01T06:51:16.111Z,101635.16
2023-05-01T06:53:44.307Z,101632.38
2023-05-01T06:56:12.285Z,101626.50
2023-05-01T06:58:41.654Z,101618.50
2023-05-01T07:01:09.750Z,101618.00
2023-05-01T07:03:38.122Z,101611.22
2023-05-01T07:06:06.331Z,101614.28
2023-05-01T07:08:34.456Z,101615.28
2023-05-01T07:11:02.507Z,101605.41
2023-05-01T07:13:30.506Z,101600.16
2023-05-01T07:15:59.969Z,101608.34
2023-05-01T07:18:27.938Z,101594.19
2023-05-01T07:20:55.860Z,101597.53
2023-05-01T07:23:25.482Z,101585.69
2023-05-01T07:25:53.886Z,101587.38
2023-05-01T07:28:22.876Z,101580.97
2023-05-01T07:30:50.757Z,101574.06
2023-05-01T07:33:20.283Z,101585.75
2023-05-01T07:35:48.333Z,101575.19
2023-05-01T07:38:17.972Z,101574.47
2023-05-01T07:40:46.358Z,101576.53
2023-05-01T07:43:14.291Z,101569.84
2023-05-01T07:45:42.940Z,101562.56
2023-05-01T07:48:11.301Z,101557.66
2023-05-01T07:50:41.545Z,101551.97
2023-05-01T07:53:09.417Z,101552.81
2023-05-01T07:55:37.936Z,101548.56
2023-05-01T07:58:06.720Z,101552.16
2023-05-01T08:00:34.749Z,101544.69
2023-05-01T08:03:03.160Z,101538.06
2023-05-01T08:05:31.923Z,101540.53
2023-05-01T08:08:01.324Z,101536.38
2023-05-01T08:10:29.265Z,101534.66
2023-05-01T08:12:57.179Z,101539.75
2023-05-01T08:15:25.426Z,101542.53
2023-05-01T08:17:53.387Z,101545.53
2023-05-01T08:20:21.529Z,101546.47
2023-05-01T08:22:49.404Z,101538.72
2023-05-01T08:25:19.480Z,101545.06
2023-05-01T08:27:47.400Z,101533.44
2023-05-01T08:30:15.982Z,101529.09
2023-05-01T08:32:44.077Z,101526.88
2023-05-01T08:35:12.052Z,101536.59
2023-05-01T08:37:40.736Z,101536.63
2023-05-01T08:40:10.397Z,101530.75
2023-05-01T08:42:39.945Z,101530.50
2023-05-01T08:45:10.486Z,101520.75
2023-05-01T08:47:40.292Z,101520.13
2023-05-01T08:50:13.126Z,101516.53
2023-05-01T08:52:43.399Z,101509.91
2023-05-01T08:55:14.887Z,101512.75
2023-05-01T08:57:47.692Z,101513.25
2023-05-01T09:00:20.385Z,101502.50
2023-05-01T09:02:50.416Z,101502.44
2023-05-01T09:05:19.742Z,101502.34
2023-05-01T09:07:49.515Z,101494.56
2023-05-01T09:10:19.085Z,101493.63
2023-05-01T09:12:55.399Z,101494.13
2023-05-01T09:15:27.130Z,101490.34
2023-05-01T09:17:55.922Z,101484.97
2023-05-01T09:20:25.481Z,101478.19
2023-05-01T09:22:56.902Z,101480.00
2023-05-01T09:25:24.956Z,101475.72
2023-05-01T09:27:57.011Z,101461.72
2023-05-01T09:30:32.588Z,101473.66
2023-05-01T09:33:13.863Z,101472.81
2023-05-01T09:35:53.137Z,101465.28
2023-05-01T09:38:22.831Z,101469.34
2023-05-01T09:40:51.055Z,101471.44
2023-05-01T09:43:31.677Z,101465.91
2023-05-01T09:46:05.477Z,101465.38
2023-05-01T09:48:36.070Z,101463.09
2023-05-01T09:51:21.606Z,101458.09
2023-05-01T09:53:50.075Z,101460.72
2023-05-01T09:56:18.520Z,101455.22
2023-05-01T09:58:48.370Z,101456.28
2023-05-01T10:01:16.757Z,101447.00
2023-05-01T10:03:46.410Z,101460.16
2023-05-01T10:06:29.033Z,101455.66
2023-05-01T10:09:20.961Z,101442.94
2023-05-01T10:11:50.569Z,101448.69
2023-05-01T10:14:21.913Z,101436.25
2023-05-01T10:16:53.218Z,101441.56
2023-05-01T10:19:21.908Z,101434.91
2023-05-01T10:21:49.931Z,101433.22
2023-05-01T10:24:19.125Z,101432.13
2023-05-01T10:26:49.996Z,101428.56
2023-05-01T10:29:24.707Z,101431.97
2023-05-01T10:31:54.051Z,101421.56
2023-05-01T10:34:27.052Z,101419.53
2023-05-01T10:37:01.906Z,101412.63
2023-05-01T10:39:34.087Z,101412.16
2023-05-01T10:42:03.881Z,101412.94
2023-05-01T10:44:34.943Z,101403.69
2023-05-01T10:47:37.846Z,101405.47
2023-05-01T10:50:08.369Z,101397.94
2023-05-01T10:53:14.663Z,101386.44
2023-05-01T10:55:47.176Z,101387.53
2023-05-01T10:58:18.446Z,101383.22
2023-05-01T11:01:26.416Z,101376.31
2023-05-01T11:03:54.495Z,101377.63
2023-05-01T11:06:23.310Z,101372.56
2023-05-01T11:08:51.924Z,101361.00
2023-05-01T11:11:50.121Z,101365.41
2023-05-01T11:14:18.789Z,101357.56
2023-05-01T11:16:49.410Z,101354.66
2023-05-01T11:19:50.826Z,101363.94
2023-05-01T11:22:19.453Z,101356.34
2023-05-01T11:24:48.080Z,101356.16
2023-05-01T11:27:17.009Z,101350.44
2023-05-01T11:29:49.629Z,101353.47
2023-05-01T11:32:27.247Z,101345.47
2023-05-01T11:34:55.861Z,101351.44
2023-05-01T11:37:43.048Z,101335.41
2023-05-01T11:40:22.479Z,101335.06
2023-05-01T11:42:51.250Z,101327.91
2023-05-01T11:45:20.971Z,101318.19
2023-05-01T11:47:50.520Z,101315.78
2023-05-01T11:50:18.553Z,101325.53
2023-05-01T11:52:49.325Z,101312.72
2023-05-01T11:55:17.803Z,101311.16
2023-05-01T11:57:50.257Z,101297.19
2023-05-01T12:00:28.510Z,101311.97
2023-05-01T12:03:03.120Z,101306.03
2023-05-01T12:05:32.478Z,101298.06
2023-05-01T12:08:11.839Z,101291.75
2023-05-01T12:10:41.816Z,101296.03
2023-05-01T12:13:11.175Z,101293.63
2023-05-01T12:15:40.915Z,101290.41
2023-05-01T12:18:10.546Z,101288.31
2023-05-01T12:20:39.973Z,101281.69
2023-05-01T12:23:09.775Z,101283.53
2023-05-01T12:25:39.543Z,101277.91
2023-05-01T12:28:11.992Z,101276.69
2023-05-01T12:30:40.804Z,101286.09
2023-05-01T12:33:15.110Z,101279.97
2023-05-01T12:35:45.359Z,101287.16
2023-05-01T12:38:15.348Z,101283.34
2023-05-01T12:40:53.943Z,101274.50
2023-05-01T12:43:23.236Z,101275.25
2023-05-01T12:45:54.971Z,101278.09
2023-05-01T12:48:25.343Z,101273.94
2023-05-01T12:50:55.348Z,101262.56
2023-05-01T12:53:24.350Z,101264.03
2023-05-01T12:55:54.518Z,101257.38
2023-05-01T12:58:22.706Z,101251.72
2023-05-01T13:00:53.046Z,101250.41
2023-05-01T13:03:28.084Z,101251.22
2023-05-01T13:05:58.092Z,101245.38
2023-05-01T13:08:31.618Z,101240.25
2023-05-01T13:11:01.999Z,101249.88
2023-05-01T13:13:32.099Z,101233.75
2023-05-01T13:16:08.861Z,101228.84
2023-05-01T13:18:49.646Z,101231.03
2023-05-01T13:21:19.622Z,101231.28
2023-05-01T13:23:54.733Z,101225.72
2023-05-01T13:26:28.849Z,101225.53
2023-05-01T13:28:57.855Z,101227.09
2023-05-01T13:31:26.296Z,101224.53
2023-05-01T13:33:57.047Z,101217.16
2023-05-01T13:36:27.089Z,101215.59
2023-05-01T13:38:56.975Z,101222.19
2023-05-01T13:41:27.445Z,101213.34
2023-05-01T13:43:56.634Z,101214.59
2023-05-01T13:46:26.907Z,101213.56
2023-05-01T13:48:56.409Z,101206.53
2023-05-01T13:51:26.459Z,101205.78
2023-05-01T13:53:54.520Z,101203.94
2023-05-01T13:56:22.865Z,101205.09
2023-05-01T13:58:51.380Z,101208.53
2023-05-01T14:01:21.374Z,101203.56
2023-05-01T14:03:50.397Z,101202.78
2023-05-01T14:06:21.920Z,101207.56
2023-05-01T14:08:50.096Z,101206.00
2023-05-01T14:11:20.101Z,101204.81
2023-05-01T14:13:49.734Z,101197.81
2023-05-01T14:16:25.911Z,101192.16
2023-05-01T14:18:57.277Z,101189.50
2023-05-01T14:21:28.787Z,101191.03
2023-05-01T14:23:58.325Z,101192.66
2023-05-01T14:26:26.330Z,101194.34
2023-05-01T14:28:54.683Z,101191.69
2023-05-01T14:31:27.355Z,101187.78
2023-05-01T14:33:57.458Z,101181.91
2023-05-01T14:36:28.426Z,101175.06
2023-05-01T14:38:57.900Z,101184.06
2023-05-01T14:41:25.971Z,101179.97
2023-05-01T14:43:54.453Z,101181.13
2023-05-01T14:46:29.621Z,101177.34
2023-05-01T14:48:57.973Z,101171.28
2023-05-01T14:51:27.366Z,101180.44
2023-05-01T14:53:56.044Z,101176.25
2023-05-01T14:56:24.050Z,101170.03
2023-05-01T14:58:52.073Z,101165.50
2023-05-01T15:01:20.556Z,101158.53
2023-05-01T15:03:49.076Z,101159.13
2023-05-01T15:06:17.494Z,101162.75
2023-05-01T15:08:46.874Z,101162.78
2023-05-01T15:11:15.374Z,101156.66
2023-05-01T15:13:44.299Z,101155.13
2023-05-01T15:16:12.291Z,101152.78
2023-05-01T15:18:40.619Z,101162.44
2023-05-01T15:21:08.497Z,101156.78
2023-05-01T15:23:37.157Z,101151.19
2023-05-01T15:26:06.550Z,101151.75
2023-05-01T15:28:34.382Z,101166.94
2023-05-01T15:31:02.332Z,101157.41
2023-05-01T15:33:30.447Z,101161.88
2023-05-01T15:35:59.686Z,101158.44
2023-05-01T15:38:28.315Z,101173.94
2023-05-01T15:40:56.388Z,101167.97
2023-05-01T15:43:25.619Z,101166.00
2023-05-01T15:45:57.881Z,101171.09
2023-05-01T15:48:26.176Z,101169.53
2023-05-01T15:50:54.167Z,101157.38
2023-05-01T15:53:22.477Z,101167.59
2023-05-01T15:55:50.337Z,101166.34
2023-05-01T15:58:19.045Z,101167.59
2023-05-01T16:00:50.071Z,101154.72
2023-05-01T16:03:18.220Z,101163.28
2023-05-01T16:05:47.670Z,101167.59
2023-05-01T16:08:15.974Z,101167.75
2023-05-01T16:10:43.997Z,101165.53
2023-05-01T16:13:12.828Z,101157.66
2023-05-01T16:15:40.827Z,101165.81
2023-05-01T16:18:17.409Z,101167.38
2023-05-01T16:20:45.817Z,101161.56
2023-05-01T16:23:16.080Z,101168.13
2023-05-01T16:25:44.770Z,101162.59
2023-05-01T16:28:13.528Z,101166.00
2023-05-01T16:30:44.684Z,101164.06
2023-05-01T16:33:19.166Z,101170.13
2023-05-01T16:35:49.386Z,101162.75
2023-05-01T16:38:17.965Z,101162.25
2023-05-01T16:40:46.882Z,101168.72
2023-05-01T16:43:15.096Z,101166.16
2023-05-01T16:45:43.131Z,101163.50
2023-05-01T16:48:11.549Z,101157.25
2023-05-01T16:50:42.943Z,101166.75
2023-05-01T16:53:10.852Z,101161.81
2023-05-01T16:55:38.725Z,101167.00
2023-05-01T16:58:06.974Z,101167.69
2023-05-01T17:00:34.907Z,101164.22
2023-05-01T17:03:02.990Z,101172.06
2023-05-01T17:05:30.975Z,101171.97
2023-05-01T17:08:00.229Z,101170.25
2023-05-01T17:10:28.205Z,101169.59
2023-05-01T17:12:56.516Z,101164.44
2023-05-01T17:15:24.373Z,101165.41
2023-05-01T17:17:52.242Z,101175.09
2023-05-01T17:20:20.268Z,101169.41
2023-05-01T17:22:48.156Z,101171.28
2023-05-01T17:25:17.568Z,101176.22
2023-05-01T17:27:45.478Z,101174.81
2023-05-01T17:30:13.818Z,101176.66
2023-05-01T17:32:41.892Z,101179.78
2023-05-01T17:35:10.258Z,101183.91
2023-05-01T17:37:39.814Z,101188.41
2023-05-01T17:40:11.051Z,101194.94
2023-05-01T17:42:40.462Z,101205.13
2023-05-01T17:45:10.372Z,101204.00
2023-05-01T17:47:41.668Z,101200.31
2023-05-01T17:50:12.310Z,101213.25
2023-05-01T17:52:40.451Z,101207.88
2023-05-01T17:55:09.112Z,101217.81
2023-05-01T17:57:37.067Z,101227.44
2023-05-01T18:00:07.905Z,101223.44
2023-05-01T18:02:36.838Z,101227.28
2023-05-01T18:05:06.137Z,101230.88
2023-05-01T18:07:36.354Z,101232.13
2023-05-01T18:10:04.711Z,101239.88
2023-05-01T18:12:32.545Z,101234.34
2023-05-01T18:15:00.477Z,101236.31
2023-05-01T18:17:29.759Z,101231.06
2023-05-01T18:19:57.833Z,101236.50
2023-05-01T18:22:29.194Z,101235.81
2023-05-01T18:24:57.377Z,101244.50
2023-05-01T18:27:26.087Z,101236.03
2023-05-01T18:29:55.531Z,101237.09
2023-05-01T18:32:30.224Z,101231.97
2023-05-01T18:35:05.852Z,101240.78
2023-05-01T18:37:34.256Z,101244.00
2023-05-01T18:40:02.304Z,101239.72
2023-05-01T18:42:30.293Z,101245.75
2023-05-01T18:44:58.197Z,101246.41
2023-05-01T18:47:26.744Z,101250.66
2023-05-01T18:49:55.060Z,101252.28
2023-05-01T18:52:24.458Z,101251.69
2023-05-01T18:54:52.381Z,101258.03
2023-05-01T18:57:20.493Z,101263.19
2023-05-01T18:59:48.507Z,101259.38
2023-05-01T19:02:16.475Z,101263.66
2023-05-01T19:04:56.623Z,101256.94
2023-05-01T19:07:27.735Z,101262.19
2023-05-01T19:09:55.843Z,101268.91
2023-05-01T19:12:23.806Z,101267.53
2023-05-01T19:14:52.230Z,101269.50
2023-05-01T19:17:21.015Z,101266.19
2023-05-01T19:19:49.381Z,101265.09
2023-05-01T19:22:17.737Z,101279.50
2023-05-01T19:24:47.181Z,101281.44
2023-05-01T19:27:15.143Z,101288.53
2023-05-01T19:29:43.115Z,101285.22
2023-05-01T19:32:11.391Z,101281.38
2023-05-01T19:34:39.583Z,101291.84
2023-05-01T19:37:07.501Z,101286.06
2023-05-01T19:39:37.209Z,101284.84
2023-05-01T19:42:06.532Z,101286.91
2023-05-01T19:44:35.496Z,101283.72
2023-05-01T19:47:03.548Z,101285.03
2023-05-01T19:49:31.413Z,101292.50
2023-05-01T19:51:59.439Z,101288.06
2023-05-01T19:54:27.341Z,101283.69
2023-05-01T19:56:56.172Z,101298.31
2023-05-01T19:59:32.652Z,101304.59
2023-05-01T20:02:01.601Z,101314.06
2023-05-01T20:04:29.693Z,101318.44
2023-05-01T20:06:58.040Z,101318.44
2023-05-01T20:09:26.934Z,101315.75
2023-05-01T20:11:55.059Z,101314.44
2023-05-01T20:14:23.225Z,101315.53
2023-05-01T20:16:53.096Z,101315.75
2023-05-01T20:19:21.100Z,101314.28
2023-05-01T20:21:49.081Z,101318.91
2023-05-01T20:24:17.064Z,101320.97
2023-05-01T20:26:45.041Z,101321.91
2023-05-01T20:29:13.917Z,101327.06
2023-05-01T20:31:41.802Z,101328.47
2023-05-01T20:34:11.163Z,101328.69
2023-05-01T20:36:39.636Z,101333.94
2023-05-01T20:39:08.299Z,101342.88
2023-05-01T20:41:38.404Z,101342.44
2023-05-01T20:44:07.193Z,101343.72
2023-05-01T20:46:35.200Z,101351.47
2023-05-01T20:49:05.476Z,101342.78
2023-05-01T20:51:34.954Z,101338.88
2023-05-01T20:54:02.969Z,101345.34
2023-05-01T20:56:30.991Z,101342.94
2023-05-01T20:59:00.372Z,101342.75
2023-05-01T21:01:30.618Z,101332.97
2023-05-01T21:04:00.173Z,101343.72
2023-05-01T21:06:28.516Z,101348.56
2023-05-01T21:09:00.227Z,101344.47
2023-05-01T21:11:28.307Z,101351.25
2023-05-01T21:13:58.285Z,101350.25
2023-05-01T21:16:27.688Z,101355.63
2023-05-01T21:18:55.681Z,101350.56
2023-05-01T21:21:25.003Z,101353.47
2023-05-01T21:23:53.223Z,101358.06
2023-05-01T21:26:22.871Z,101360.00
2023-05-01T21:28:50.907Z,101359.06
2023-05-01T21:31:19.059Z,101356.47
2023-05-01T21:33:47.440Z,101365.47
2023-05-01T21:36:18.500Z,101367.28
2023-05-01T21:38:47.127Z,101360.88
2023-05-01T21:41:15.770Z,101368.28
2023-05-01T21:43:45.358Z,101365.19
2023-05-01T21:46:17.931Z,101357.53
2023-05-01T21:48:50.549Z,101365.19
2023-05-01T21:51:19.383Z,101367.66
2023-05-01T21:53:47.727Z,101353.06
2023-05-01T21:56:15.759Z,101358.13
2023-05-01T21:58:45.009Z,101360.59
2023-05-01T22:01:14.482Z,101348.44
2023-05-01T22:03:43.480Z,101357.13
2023-05-01T22:06:11.660Z,101360.34
2023-05-01T22:08:39.648Z,101353.69
2023-05-01T22:11:08.531Z,101355.09
2023-05-01T22:13:36.667Z,101359.94
2023-05-01T22:16:06.720Z,101357.91
2023-05-01T22:18:34.709Z,101358.19
2023-05-01T22:21:03.568Z,101365.59
2023-05-01T22:23:31.512Z,101361.97
2023-05-01T22:26:00.767Z,101366.91
2023-05-01T22:28:29.125Z,101371.31
2023-05-01T22:30:57.065Z,101372.50
2023-05-01T22:33:26.403Z,101370.03
2023-05-01T22:35:54.405Z,101378.31
2023-05-01T22:38:22.241Z,101377.88
2023-05-01T22:40:50.176Z,101384.41
2023-05-01T22:43:18.139Z,101378.72
2023-05-01T22:45:46.521Z,101383.13
2023-05-01T22:48:14.392Z,101387.66
2023-05-01T22:50:44.008Z,101386.97
2023-05-01T22:53:12.172Z,101388.50
2023-05-01T22:55:40.204Z,101395.47
2023-05-01T22:58:08.367Z,101397.91
2023-05-01T23:00:36.618Z,101397.28
2023-05-01T23:03:05.084Z,101399.63
2023-05-01T23:05:33.249Z,101395.00
2023-05-01T23:08:02.835Z,101394.38
2023-05-01T23:10:33.001Z,101399.63
2023-05-01T23:13:01.930Z,101401.13
2023-05-01T23:15:29.807Z,101408.31
2023-05-01T23:17:57.783Z,101399.75
2023-05-01T23:20:26.293Z,101408.44
2023-05-01T23:22:54.952Z,101401.78
2023-05-01T23:25:27.310Z,101405.50
2023-05-01T23:27:56.630Z,101402.94
2023-05-01T23:30:24.860Z,101401.41
2023-05-01T23:32:53.034Z,101414.94
2023-05-01T23:35:23.882Z,101417.19
2023-05-01T23:37:53.956Z,101411.94
2023-05-01T23:40:22.558Z,101412.59
2023-05-01T23:42:52.736Z,101416.19
2023-05-01T23:45:20.777Z,101416.13
2023-05-01T23:47:48.778Z,101419.88
2023-05-01T23:50:16.776Z,101419.03
2023-05-01T23:52:44.767Z,101428.22
2023-05-01T23:55:12.648Z,101421.28
2023-05-01T23:57:40.696Z,101415.84
